sensor_id;sensor_type;location;lat;lon;timestamp;P1;durP1;ratioP1;P2;durP2;ratioP2
22282;SDS011;11310;51.528;21.204;2022-08-25T00:00:13;13.82;;;2.45;;
22282;SDS011;11310;51.528;21.204;2022-08-25T00:02:44;11.75;;;2.88;;
22282;SDS011;11310;51.528;21.204;2022-08-25T00:05:22;12.20;;;3.25;;
22282;SDS011;11310;51.528;21.204;2022-08-25T00:07:58;11.40;;;2.47;;
22282;SDS011;11310;51.528;21.204;2022-08-25T00:10:26;15.63;;;3.20;;
22282;SDS011;11310;51.528;21.204;2022-08-25T00:12:56;11.15;;;2.45;;
22282;SDS011;11310;51.528;21.204;2022-08-25T00:15:25;7.80;;;2.42;;
22282;SDS011;11310;51.528;21.204;2022-08-25T00:17:56;6.38;;;2.33;;
22282;SDS011;11310;51.528;21.204;2022-08-25T00:20:26;9.30;;;2.40;;
22282;SDS011;11310;51.528;21.204;2022-08-25T00:22:56;11.05;;;3.70;;
22282;SDS011;11310;51.528;21.204;2022-08-25T00:25:28;9.40;;;2.55;;
22282;SDS011;11310;51.528;21.204;2022-08-25T00:28:02;17.00;;;3.08;;
22282;SDS011;11310;51.528;21.204;2022-08-25T00:30:34;12.80;;;2.80;;
22282;SDS011;11310;51.528;21.204;2022-08-25T00:33:05;11.70;;;3.22;;
22282;SDS011;11310;51.528;21.204;2022-08-25T00:35:35;7.38;;;2.55;;
22282;SDS011;11310;51.528;21.204;2022-08-25T00:38:06;11.75;;;2.60;;
22282;SDS011;11310;51.528;21.204;2022-08-25T00:40:35;9.32;;;2.58;;
22282;SDS011;11310;51.528;21.204;2022-08-25T00:43:05;9.10;;;2.22;;
22282;SDS011;11310;51.528;21.204;2022-08-25T00:45:35;5.68;;;2.28;;
22282;SDS011;11310;51.528;21.204;2022-08-25T00:48:06;11.25;;;3.38;;
22282;SDS011;11310;51.528;21.204;2022-08-25T00:50:36;8.98;;;2.20;;
22282;SDS011;11310;51.528;21.204;2022-08-25T00:53:05;9.65;;;2.88;;
22282;SDS011;11310;51.528;21.204;2022-08-25T00:55:36;12.27;;;2.55;;
22282;SDS011;11310;51.528;21.204;2022-08-25T00:58:10;7.90;;;2.67;;
22282;SDS011;11310;51.528;21.204;2022-08-25T01:00:44;9.18;;;2.38;;
22282;SDS011;11310;51.528;21.204;2022-08-25T01:03:19;12.02;;;3.22;;
22282;SDS011;11310;51.528;21.204;2022-08-25T01:08:28;8.15;;;2.40;;
22282;SDS011;11310;51.528;21.204;2022-08-25T01:11:01;9.05;;;2.85;;
22282;SDS011;11310;51.528;21.204;2022-08-25T01:16:02;10.52;;;2.78;;
22282;SDS011;11310;51.528;21.204;2022-08-25T01:21:31;6.38;;;2.20;;
22282;SDS011;11310;51.528;21.204;2022-08-25T01:24:07;7.97;;;2.10;;
22282;SDS011;11310;51.528;21.204;2022-08-25T01:26:38;9.70;;;2.33;;
22282;SDS011;11310;51.528;21.204;2022-08-25T01:29:07;7.57;;;2.17;;
22282;SDS011;11310;51.528;21.204;2022-08-25T01:31:52;9.85;;;2.38;;
22282;SDS011;11310;51.528;21.204;2022-08-25T01:34:24;6.25;;;2.47;;
22282;SDS011;11310;51.528;21.204;2022-08-25T01:36:57;5.05;;;1.85;;
22282;SDS011;11310;51.528;21.204;2022-08-25T01:39:28;10.60;;;2.60;;
22282;SDS011;11310;51.528;21.204;2022-08-25T01:42:03;9.75;;;2.28;;
22282;SDS011;11310;51.528;21.204;2022-08-25T01:44:41;12.50;;;2.50;;
22282;SDS011;11310;51.528;21.204;2022-08-25T01:47:12;11.13;;;2.67;;
22282;SDS011;11310;51.528;21.204;2022-08-25T01:49:44;8.43;;;2.53;;
22282;SDS011;11310;51.528;21.204;2022-08-25T01:52:31;8.23;;;2.45;;
22282;SDS011;11310;51.528;21.204;2022-08-25T01:55:02;9.32;;;2.30;;
22282;SDS011;11310;51.528;21.204;2022-08-25T01:57:32;7.27;;;2.30;;
22282;SDS011;11310;51.528;21.204;2022-08-25T02:00:03;8.00;;;2.08;;
22282;SDS011;11310;51.528;21.204;2022-08-25T02:02:36;7.97;;;2.40;;
22282;SDS011;11310;51.528;21.204;2022-08-25T02:05:09;9.02;;;1.88;;
22282;SDS011;11310;51.528;21.204;2022-08-25T02:07:42;5.93;;;1.83;;
22282;SDS011;11310;51.528;21.204;2022-08-25T02:10:12;12.27;;;2.30;;
22282;SDS011;11310;51.528;21.204;2022-08-25T02:12:42;9.65;;;2.38;;
22282;SDS011;11310;51.528;21.204;2022-08-25T02:15:11;9.77;;;2.05;;
22282;SDS011;11310;51.528;21.204;2022-08-25T02:17:41;6.80;;;2.17;;
22282;SDS011;11310;51.528;21.204;2022-08-25T02:20:10;8.30;;;2.08;;
22282;SDS011;11310;51.528;21.204;2022-08-25T02:22:39;9.25;;;2.78;;
22282;SDS011;11310;51.528;21.204;2022-08-25T02:25:18;7.00;;;2.47;;
22282;SDS011;11310;51.528;21.204;2022-08-25T02:27:47;6.63;;;2.28;;
22282;SDS011;11310;51.528;21.204;2022-08-25T02:30:16;9.93;;;2.80;;
22282;SDS011;11310;51.528;21.204;2022-08-25T02:32:46;9.93;;;2.47;;
22282;SDS011;11310;51.528;21.204;2022-08-25T02:35:15;10.07;;;2.40;;
22282;SDS011;11310;51.528;21.204;2022-08-25T02:37:45;7.15;;;2.50;;
22282;SDS011;11310;51.528;21.204;2022-08-25T02:40:14;11.45;;;2.70;;
22282;SDS011;11310;51.528;21.204;2022-08-25T02:42:45;14.20;;;2.50;;
22282;SDS011;11310;51.528;21.204;2022-08-25T02:45:14;10.63;;;3.38;;
22282;SDS011;11310;51.528;21.204;2022-08-25T02:47:44;5.63;;;2.30;;
22282;SDS011;11310;51.528;21.204;2022-08-25T02:50:14;7.70;;;2.35;;
22282;SDS011;11310;51.528;21.204;2022-08-25T02:52:44;6.97;;;2.25;;
22282;SDS011;11310;51.528;21.204;2022-08-25T02:55:12;17.35;;;2.65;;
22282;SDS011;11310;51.528;21.204;2022-08-25T02:57:41;11.27;;;2.90;;
22282;SDS011;11310;51.528;21.204;2022-08-25T03:00:13;9.30;;;2.25;;
22282;SDS011;11310;51.528;21.204;2022-08-25T03:02:44;8.63;;;2.40;;
22282;SDS011;11310;51.528;21.204;2022-08-25T03:05:14;7.97;;;2.72;;
22282;SDS011;11310;51.528;21.204;2022-08-25T03:07:43;8.43;;;2.70;;
22282;SDS011;11310;51.528;21.204;2022-08-25T03:10:14;12.30;;;3.28;;
22282;SDS011;11310;51.528;21.204;2022-08-25T03:12:46;9.35;;;3.58;;
22282;SDS011;11310;51.528;21.204;2022-08-25T03:15:17;17.38;;;2.88;;
22282;SDS011;11310;51.528;21.204;2022-08-25T03:17:47;11.48;;;2.88;;
22282;SDS011;11310;51.528;21.204;2022-08-25T03:20:17;8.45;;;2.22;;
22282;SDS011;11310;51.528;21.204;2022-08-25T03:22:46;12.77;;;3.10;;
22282;SDS011;11310;51.528;21.204;2022-08-25T03:25:16;10.30;;;2.28;;
22282;SDS011;11310;51.528;21.204;2022-08-25T03:28:02;5.63;;;2.20;;
22282;SDS011;11310;51.528;21.204;2022-08-25T03:30:34;7.63;;;2.17;;
22282;SDS011;11310;51.528;21.204;2022-08-25T03:33:03;7.18;;;2.10;;
22282;SDS011;11310;51.528;21.204;2022-08-25T03:35:32;10.57;;;2.42;;
22282;SDS011;11310;51.528;21.204;2022-08-25T03:38:04;7.55;;;2.13;;
22282;SDS011;11310;51.528;21.204;2022-08-25T03:40:33;7.53;;;2.00;;
22282;SDS011;11310;51.528;21.204;2022-08-25T03:43:03;9.85;;;2.47;;
22282;SDS011;11310;51.528;21.204;2022-08-25T03:45:38;12.68;;;2.80;;
22282;SDS011;11310;51.528;21.204;2022-08-25T03:48:08;11.02;;;3.13;;
22282;SDS011;11310;51.528;21.204;2022-08-25T03:50:43;9.38;;;2.50;;
22282;SDS011;11310;51.528;21.204;2022-08-25T03:53:18;8.68;;;2.72;;
22282;SDS011;11310;51.528;21.204;2022-08-25T03:55:47;11.77;;;2.28;;
22282;SDS011;11310;51.528;21.204;2022-08-25T03:58:16;6.15;;;2.10;;
22282;SDS011;11310;51.528;21.204;2022-08-25T04:00:47;8.57;;;2.55;;
22282;SDS011;11310;51.528;21.204;2022-08-25T04:03:16;8.55;;;2.50;;
22282;SDS011;11310;51.528;21.204;2022-08-25T04:05:47;11.27;;;2.58;;
22282;SDS011;11310;51.528;21.204;2022-08-25T04:08:15;7.25;;;2.38;;
22282;SDS011;11310;51.528;21.204;2022-08-25T04:10:45;17.52;;;3.25;;
22282;SDS011;11310;51.528;21.204;2022-08-25T04:13:14;8.27;;;2.55;;
22282;SDS011;11310;51.528;21.204;2022-08-25T04:15:44;9.63;;;2.53;;
22282;SDS011;11310;51.528;21.204;2022-08-25T04:18:15;8.10;;;2.28;;
22282;SDS011;11310;51.528;21.204;2022-08-25T04:20:44;10.73;;;2.90;;
22282;SDS011;11310;51.528;21.204;2022-08-25T04:23:14;5.50;;;2.30;;
22282;SDS011;11310;51.528;21.204;2022-08-25T04:25:43;7.72;;;2.15;;
22282;SDS011;11310;51.528;21.204;2022-08-25T04:28:12;4.72;;;1.80;;
22282;SDS011;11310;51.528;21.204;2022-08-25T04:30:41;4.35;;;1.48;;
22282;SDS011;11310;51.528;21.204;2022-08-25T04:33:16;10.82;;;2.70;;
22282;SDS011;11310;51.528;21.204;2022-08-25T04:35:46;6.93;;;1.90;;
22282;SDS011;11310;51.528;21.204;2022-08-25T04:38:16;4.55;;;1.75;;
22282;SDS011;11310;51.528;21.204;2022-08-25T04:40:45;6.38;;;1.80;;
22282;SDS011;11310;51.528;21.204;2022-08-25T04:43:23;6.63;;;1.90;;
22282;SDS011;11310;51.528;21.204;2022-08-25T04:45:52;7.22;;;1.85;;
22282;SDS011;11310;51.528;21.204;2022-08-25T04:48:23;5.03;;;1.70;;
22282;SDS011;11310;51.528;21.204;2022-08-25T04:50:54;4.03;;;1.73;;
22282;SDS011;11310;51.528;21.204;2022-08-25T04:53:23;4.13;;;1.70;;
22282;SDS011;11310;51.528;21.204;2022-08-25T04:55:53;8.80;;;1.83;;
22282;SDS011;11310;51.528;21.204;2022-08-25T04:58:27;4.22;;;1.40;;
22282;SDS011;11310;51.528;21.204;2022-08-25T05:01:00;5.47;;;1.40;;
22282;SDS011;11310;51.528;21.204;2022-08-25T05:03:31;3.45;;;1.38;;
22282;SDS011;11310;51.528;21.204;2022-08-25T05:06:01;4.35;;;1.52;;
22282;SDS011;11310;51.528;21.204;2022-08-25T05:08:30;7.18;;;2.15;;
22282;SDS011;11310;51.528;21.204;2022-08-25T05:11:03;4.18;;;1.55;;
22282;SDS011;11310;51.528;21.204;2022-08-25T05:13:33;5.47;;;2.13;;
22282;SDS011;11310;51.528;21.204;2022-08-25T05:16:04;6.97;;;2.07;;
22282;SDS011;11310;51.528;21.204;2022-08-25T05:18:38;9.20;;;1.70;;
22282;SDS011;11310;51.528;21.204;2022-08-25T05:21:08;4.80;;;2.00;;
22282;SDS011;11310;51.528;21.204;2022-08-25T05:23:39;4.55;;;1.60;;
22282;SDS011;11310;51.528;21.204;2022-08-25T05:26:10;5.10;;;1.98;;
22282;SDS011;11310;51.528;21.204;2022-08-25T05:28:45;5.57;;;1.65;;
22282;SDS011;11310;51.528;21.204;2022-08-25T05:31:16;6.53;;;1.70;;
22282;SDS011;11310;51.528;21.204;2022-08-25T05:33:48;5.97;;;1.98;;
22282;SDS011;11310;51.528;21.204;2022-08-25T05:36:20;7.60;;;2.00;;
22282;SDS011;11310;51.528;21.204;2022-08-25T05:38:50;4.95;;;1.65;;
22282;SDS011;11310;51.528;21.204;2022-08-25T05:41:20;4.45;;;1.35;;
22282;SDS011;11310;51.528;21.204;2022-08-25T05:43:53;3.22;;;1.77;;
22282;SDS011;11310;51.528;21.204;2022-08-25T05:46:24;6.97;;;1.95;;
22282;SDS011;11310;51.528;21.204;2022-08-25T05:48:59;7.13;;;2.50;;
22282;SDS011;11310;51.528;21.204;2022-08-25T05:51:28;5.17;;;1.77;;
22282;SDS011;11310;51.528;21.204;2022-08-25T05:53:57;9.48;;;2.33;;
22282;SDS011;11310;51.528;21.204;2022-08-25T05:56:27;11.80;;;3.30;;
22282;SDS011;11310;51.528;21.204;2022-08-25T05:58:56;8.43;;;3.33;;
22282;SDS011;11310;51.528;21.204;2022-08-25T06:01:27;11.95;;;3.35;;
22282;SDS011;11310;51.528;21.204;2022-08-25T06:04:16;15.57;;;3.58;;
22282;SDS011;11310;51.528;21.204;2022-08-25T06:06:46;13.80;;;3.92;;
22282;SDS011;11310;51.528;21.204;2022-08-25T06:09:19;13.23;;;3.80;;
22282;SDS011;11310;51.528;21.204;2022-08-25T06:11:49;12.43;;;4.35;;
22282;SDS011;11310;51.528;21.204;2022-08-25T06:14:21;11.50;;;4.45;;
22282;SDS011;11310;51.528;21.204;2022-08-25T06:16:51;13.45;;;4.30;;
22282;SDS011;11310;51.528;21.204;2022-08-25T06:19:22;14.95;;;3.85;;
22282;SDS011;11310;51.528;21.204;2022-08-25T06:21:54;15.90;;;4.17;;
22282;SDS011;11310;51.528;21.204;2022-08-25T06:24:25;15.27;;;4.72;;
22282;SDS011;11310;51.528;21.204;2022-08-25T06:26:55;11.25;;;4.68;;
22282;SDS011;11310;51.528;21.204;2022-08-25T06:29:25;16.13;;;4.65;;
22282;SDS011;11310;51.528;21.204;2022-08-25T06:31:54;23.02;;;5.50;;
22282;SDS011;11310;51.528;21.204;2022-08-25T06:34:26;13.52;;;4.45;;
22282;SDS011;11310;51.528;21.204;2022-08-25T06:36:54;12.93;;;4.32;;
22282;SDS011;11310;51.528;21.204;2022-08-25T06:39:23;14.25;;;4.85;;
22282;SDS011;11310;51.528;21.204;2022-08-25T06:41:53;15.05;;;4.43;;
22282;SDS011;11310;51.528;21.204;2022-08-25T06:44:25;20.02;;;6.95;;
22282;SDS011;11310;51.528;21.204;2022-08-25T06:46:55;11.38;;;4.65;;
22282;SDS011;11310;51.528;21.204;2022-08-25T06:49:26;21.02;;;5.68;;
22282;SDS011;11310;51.528;21.204;2022-08-25T06:52:01;12.00;;;5.07;;
22282;SDS011;11310;51.528;21.204;2022-08-25T06:54:31;17.85;;;5.50;;
22282;SDS011;11310;51.528;21.204;2022-08-25T06:57:00;15.23;;;5.43;;
22282;SDS011;11310;51.528;21.204;2022-08-25T06:59:32;18.55;;;4.68;;
22282;SDS011;11310;51.528;21.204;2022-08-25T07:02:07;18.23;;;5.43;;
22282;SDS011;11310;51.528;21.204;2022-08-25T07:04:38;17.10;;;5.60;;
22282;SDS011;11310;51.528;21.204;2022-08-25T07:07:07;18.08;;;5.38;;
22282;SDS011;11310;51.528;21.204;2022-08-25T07:09:36;16.90;;;5.90;;
22282;SDS011;11310;51.528;21.204;2022-08-25T07:12:06;14.40;;;5.10;;
22282;SDS011;11310;51.528;21.204;2022-08-25T07:14:36;17.00;;;5.30;;
22282;SDS011;11310;51.528;21.204;2022-08-25T07:17:05;18.05;;;5.95;;
22282;SDS011;11310;51.528;21.204;2022-08-25T07:19:39;17.00;;;4.65;;
22282;SDS011;11310;51.528;21.204;2022-08-25T07:22:11;14.18;;;5.55;;
22282;SDS011;11310;51.528;21.204;2022-08-25T07:24:40;17.38;;;5.40;;
22282;SDS011;11310;51.528;21.204;2022-08-25T07:27:09;15.98;;;5.45;;
22282;SDS011;11310;51.528;21.204;2022-08-25T07:29:38;16.05;;;5.15;;
22282;SDS011;11310;51.528;21.204;2022-08-25T07:32:08;17.75;;;6.15;;
22282;SDS011;11310;51.528;21.204;2022-08-25T07:34:41;15.73;;;5.43;;
22282;SDS011;11310;51.528;21.204;2022-08-25T07:37:23;15.32;;;5.40;;
22282;SDS011;11310;51.528;21.204;2022-08-25T07:40:14;16.63;;;5.63;;
22282;SDS011;11310;51.528;21.204;2022-08-25T07:42:45;16.85;;;5.10;;
22282;SDS011;11310;51.528;21.204;2022-08-25T07:45:15;14.20;;;5.57;;
22282;SDS011;11310;51.528;21.204;2022-08-25T07:48:06;13.38;;;4.82;;
22282;SDS011;11310;51.528;21.204;2022-08-25T07:50:40;14.90;;;6.00;;
22282;SDS011;11310;51.528;21.204;2022-08-25T07:53:12;14.82;;;6.25;;
22282;SDS011;11310;51.528;21.204;2022-08-25T07:55:43;14.43;;;4.95;;
22282;SDS011;11310;51.528;21.204;2022-08-25T07:58:13;13.20;;;5.30;;
22282;SDS011;11310;51.528;21.204;2022-08-25T08:00:46;15.98;;;5.05;;
22282;SDS011;11310;51.528;21.204;2022-08-25T08:03:16;14.63;;;5.03;;
22282;SDS011;11310;51.528;21.204;2022-08-25T08:06:07;12.20;;;4.93;;
22282;SDS011;11310;51.528;21.204;2022-08-25T08:08:37;16.88;;;5.10;;
22282;SDS011;11310;51.528;21.204;2022-08-25T08:11:14;17.65;;;5.53;;
22282;SDS011;11310;51.528;21.204;2022-08-25T08:13:44;20.38;;;5.72;;
22282;SDS011;11310;51.528;21.204;2022-08-25T08:16:17;9.98;;;4.80;;
22282;SDS011;11310;51.528;21.204;2022-08-25T08:18:47;15.20;;;5.15;;
22282;SDS011;11310;51.528;21.204;2022-08-25T08:21:18;18.65;;;5.80;;
22282;SDS011;11310;51.528;21.204;2022-08-25T08:23:49;12.98;;;4.47;;
22282;SDS011;11310;51.528;21.204;2022-08-25T08:26:24;12.50;;;4.65;;
22282;SDS011;11310;51.528;21.204;2022-08-25T08:29:15;12.48;;;4.30;;
22282;SDS011;11310;51.528;21.204;2022-08-25T08:31:48;10.80;;;4.88;;
22282;SDS011;11310;51.528;21.204;2022-08-25T08:34:20;17.20;;;4.35;;
22282;SDS011;11310;51.528;21.204;2022-08-25T08:36:55;18.13;;;5.22;;
22282;SDS011;11310;51.528;21.204;2022-08-25T08:39:25;16.55;;;4.70;;
22282;SDS011;11310;51.528;21.204;2022-08-25T08:41:58;18.63;;;4.65;;
22282;SDS011;11310;51.528;21.204;2022-08-25T08:44:53;10.70;;;4.13;;
22282;SDS011;11310;51.528;21.204;2022-08-25T08:47:38;20.17;;;4.50;;
22282;SDS011;11310;51.528;21.204;2022-08-25T08:50:22;16.80;;;4.88;;
22282;SDS011;11310;51.528;21.204;2022-08-25T08:53:03;12.45;;;4.30;;
22282;SDS011;11310;51.528;21.204;2022-08-25T08:55:38;12.98;;;4.25;;
22282;SDS011;11310;51.528;21.204;2022-08-25T08:58:15;16.38;;;5.03;;
22282;SDS011;11310;51.528;21.204;2022-08-25T09:00:53;11.05;;;4.55;;
22282;SDS011;11310;51.528;21.204;2022-08-25T09:03:26;12.18;;;4.72;;
22282;SDS011;11310;51.528;21.204;2022-08-25T09:06:01;14.52;;;4.47;;
22282;SDS011;11310;51.528;21.204;2022-08-25T09:08:38;14.07;;;4.30;;
22282;SDS011;11310;51.528;21.204;2022-08-25T09:11:12;18.58;;;4.97;;
22282;SDS011;11310;51.528;21.204;2022-08-25T09:13:57;15.40;;;4.70;;
22282;SDS011;11310;51.528;21.204;2022-08-25T09:16:38;17.92;;;4.32;;
22282;SDS011;11310;51.528;21.204;2022-08-25T09:19:27;13.20;;;3.90;;
22282;SDS011;11310;51.528;21.204;2022-08-25T09:22:10;10.88;;;4.13;;
22282;SDS011;11310;51.528;21.204;2022-08-25T09:25:06;9.85;;;4.00;;
22282;SDS011;11310;51.528;21.204;2022-08-25T09:27:50;16.95;;;4.18;;
22282;SDS011;11310;51.528;21.204;2022-08-25T09:30:31;10.30;;;3.47;;
22282;SDS011;11310;51.528;21.204;2022-08-25T09:33:09;12.75;;;3.70;;
22282;SDS011;11310;51.528;21.204;2022-08-25T09:35:47;10.48;;;3.97;;
22282;SDS011;11310;51.528;21.204;2022-08-25T09:38:20;11.15;;;4.68;;
22282;SDS011;11310;51.528;21.204;2022-08-25T09:40:53;12.00;;;4.85;;
22282;SDS011;11310;51.528;21.204;2022-08-25T09:43:28;12.00;;;4.20;;
22282;SDS011;11310;51.528;21.204;2022-08-25T09:46:02;19.45;;;4.47;;
22282;SDS011;11310;51.528;21.204;2022-08-25T09:48:42;12.70;;;4.03;;
22282;SDS011;11310;51.528;21.204;2022-08-25T09:51:23;16.15;;;4.63;;
22282;SDS011;11310;51.528;21.204;2022-08-25T09:53:56;16.98;;;3.83;;
22282;SDS011;11310;51.528;21.204;2022-08-25T09:56:45;12.53;;;3.50;;
22282;SDS011;11310;51.528;21.204;2022-08-25T09:59:17;10.55;;;3.80;;
22282;SDS011;11310;51.528;21.204;2022-08-25T10:02:03;12.77;;;3.15;;
22282;SDS011;11310;51.528;21.204;2022-08-25T10:04:50;9.93;;;3.63;;
22282;SDS011;11310;51.528;21.204;2022-08-25T10:07:20;7.88;;;2.92;;
22282;SDS011;11310;51.528;21.204;2022-08-25T10:09:54;11.65;;;3.65;;
22282;SDS011;11310;51.528;21.204;2022-08-25T10:12:28;8.05;;;3.50;;
22282;SDS011;11310;51.528;21.204;2022-08-25T10:15:10;9.27;;;2.88;;
22282;SDS011;11310;51.528;21.204;2022-08-25T10:17:56;11.90;;;3.50;;
22282;SDS011;11310;51.528;21.204;2022-08-25T10:21:00;7.82;;;2.92;;
22282;SDS011;11310;51.528;21.204;2022-08-25T10:23:35;10.50;;;2.65;;
22282;SDS011;11310;51.528;21.204;2022-08-25T10:26:09;10.10;;;2.90;;
22282;SDS011;11310;51.528;21.204;2022-08-25T10:28:49;10.75;;;2.75;;
22282;SDS011;11310;51.528;21.204;2022-08-25T10:31:34;11.68;;;2.70;;
22282;SDS011;11310;51.528;21.204;2022-08-25T10:34:14;8.60;;;2.60;;
22282;SDS011;11310;51.528;21.204;2022-08-25T10:36:59;6.75;;;2.40;;
22282;SDS011;11310;51.528;21.204;2022-08-25T10:39:39;8.05;;;2.83;;
22282;SDS011;11310;51.528;21.204;2022-08-25T10:42:25;12.00;;;2.53;;
22282;SDS011;11310;51.528;21.204;2022-08-25T10:51:16;9.73;;;2.42;;
22282;SDS011;11310;51.528;21.204;2022-08-25T10:53:59;7.20;;;2.60;;
22282;SDS011;11310;51.528;21.204;2022-08-25T10:56:35;11.27;;;3.03;;
22282;SDS011;11310;51.528;21.204;2022-08-25T10:59:11;6.70;;;2.60;;
22282;SDS011;11310;51.528;21.204;2022-08-25T11:02:01;7.35;;;2.97;;
22282;SDS011;11310;51.528;21.204;2022-08-25T11:04:40;8.98;;;3.15;;
22282;SDS011;11310;51.528;21.204;2022-08-25T11:07:18;10.70;;;3.10;;
22282;SDS011;11310;51.528;21.204;2022-08-25T11:09:51;9.90;;;2.95;;
22282;SDS011;11310;51.528;21.204;2022-08-25T11:12:26;9.32;;;3.22;;
22282;SDS011;11310;51.528;21.204;2022-08-25T11:15:01;7.03;;;3.42;;
22282;SDS011;11310;51.528;21.204;2022-08-25T11:17:39;8.82;;;3.08;;
22282;SDS011;11310;51.528;21.204;2022-08-25T11:20:18;9.60;;;3.08;;
22282;SDS011;11310;51.528;21.204;2022-08-25T11:22:56;9.65;;;3.33;;
22282;SDS011;11310;51.528;21.204;2022-08-25T11:25:39;8.15;;;3.20;;
22282;SDS011;11310;51.528;21.204;2022-08-25T11:28:11;9.15;;;3.17;;
22282;SDS011;11310;51.528;21.204;2022-08-25T11:30:49;5.43;;;3.00;;
22282;SDS011;11310;51.528;21.204;2022-08-25T11:33:25;8.43;;;3.15;;
22282;SDS011;11310;51.528;21.204;2022-08-25T11:35:58;11.05;;;3.45;;
22282;SDS011;11310;51.528;21.204;2022-08-25T11:38:36;9.50;;;3.05;;
22282;SDS011;11310;51.528;21.204;2022-08-25T11:41:16;12.13;;;2.83;;
22282;SDS011;11310;51.528;21.204;2022-08-25T11:44:00;13.63;;;3.73;;
22282;SDS011;11310;51.528;21.204;2022-08-25T11:46:43;12.48;;;3.25;;
22282;SDS011;11310;51.528;21.204;2022-08-25T11:49:26;8.98;;;3.13;;
22282;SDS011;11310;51.528;21.204;2022-08-25T11:55:18;13.00;;;3.20;;
22282;SDS011;11310;51.528;21.204;2022-08-25T11:57:49;8.95;;;3.17;;
22282;SDS011;11310;51.528;21.204;2022-08-25T12:00:37;7.15;;;2.92;;
22282;SDS011;11310;51.528;21.204;2022-08-25T12:06:23;7.60;;;2.38;;
22282;SDS011;11310;51.528;21.204;2022-08-25T12:11:49;7.70;;;2.70;;
22282;SDS011;11310;51.528;21.204;2022-08-25T12:14:37;7.93;;;2.85;;
22282;SDS011;11310;51.528;21.204;2022-08-25T12:20:06;8.05;;;2.13;;
22282;SDS011;11310;51.528;21.204;2022-08-25T12:22:40;4.93;;;2.17;;
22282;SDS011;11310;51.528;21.204;2022-08-25T12:25:22;10.20;;;2.63;;
22282;SDS011;11310;51.528;21.204;2022-08-25T12:28:14;5.32;;;2.40;;
22282;SDS011;11310;51.528;21.204;2022-08-25T12:31:06;6.30;;;2.63;;
22282;SDS011;11310;51.528;21.204;2022-08-25T12:33:50;8.77;;;2.22;;
22282;SDS011;11310;51.528;21.204;2022-08-25T12:36:29;9.30;;;2.00;;
22282;SDS011;11310;51.528;21.204;2022-08-25T12:39:15;5.97;;;1.75;;
22282;SDS011;11310;51.528;21.204;2022-08-25T12:41:51;6.20;;;2.10;;
22282;SDS011;11310;51.528;21.204;2022-08-25T12:44:34;5.50;;;2.13;;
22282;SDS011;11310;51.528;21.204;2022-08-25T12:47:10;4.35;;;2.08;;
22282;SDS011;11310;51.528;21.204;2022-08-25T12:49:52;4.97;;;2.58;;
22282;SDS011;11310;51.528;21.204;2022-08-25T12:52:22;8.27;;;2.20;;
22282;SDS011;11310;51.528;21.204;2022-08-25T12:54:56;7.10;;;2.20;;
22282;SDS011;11310;51.528;21.204;2022-08-25T12:57:37;10.10;;;2.50;;
22282;SDS011;11310;51.528;21.204;2022-08-25T13:00:12;7.38;;;2.20;;
22282;SDS011;11310;51.528;21.204;2022-08-25T13:02:52;11.88;;;2.17;;
22282;SDS011;11310;51.528;21.204;2022-08-25T13:05:43;5.88;;;2.05;;
22282;SDS011;11310;51.528;21.204;2022-08-25T13:08:34;9.07;;;1.90;;
22282;SDS011;11310;51.528;21.204;2022-08-25T13:11:36;7.05;;;1.92;;
22282;SDS011;11310;51.528;21.204;2022-08-25T13:14:13;7.57;;;2.35;;
22282;SDS011;11310;51.528;21.204;2022-08-25T13:16:51;4.15;;;1.90;;
22282;SDS011;11310;51.528;21.204;2022-08-25T13:19:24;6.10;;;2.10;;
22282;SDS011;11310;51.528;21.204;2022-08-25T13:22:02;13.68;;;2.38;;
22282;SDS011;11310;51.528;21.204;2022-08-25T13:24:42;8.77;;;2.92;;
22282;SDS011;11310;51.528;21.204;2022-08-25T13:27:19;6.95;;;2.63;;
22282;SDS011;11310;51.528;21.204;2022-08-25T13:29:55;9.93;;;2.15;;
22282;SDS011;11310;51.528;21.204;2022-08-25T13:32:31;10.88;;;2.40;;
22282;SDS011;11310;51.528;21.204;2022-08-25T13:35:11;7.13;;;2.40;;
22282;SDS011;11310;51.528;21.204;2022-08-25T13:37:46;7.47;;;2.17;;
22282;SDS011;11310;51.528;21.204;2022-08-25T13:40:15;5.95;;;2.38;;
22282;SDS011;11310;51.528;21.204;2022-08-25T13:42:54;6.15;;;2.00;;
22282;SDS011;11310;51.528;21.204;2022-08-25T13:45:29;9.48;;;2.08;;
22282;SDS011;11310;51.528;21.204;2022-08-25T13:48:07;10.18;;;2.08;;
22282;SDS011;11310;51.528;21.204;2022-08-25T13:50:48;3.67;;;1.73;;
22282;SDS011;11310;51.528;21.204;2022-08-25T13:53:20;8.23;;;2.05;;
22282;SDS011;11310;51.528;21.204;2022-08-25T13:55:51;7.53;;;1.95;;
22282;SDS011;11310;51.528;21.204;2022-08-25T13:58:25;5.15;;;2.03;;
22282;SDS011;11310;51.528;21.204;2022-08-25T14:01:11;6.25;;;2.00;;
22282;SDS011;11310;51.528;21.204;2022-08-25T14:07:06;13.07;;;2.65;;
22282;SDS011;11310;51.528;21.204;2022-08-25T14:09:37;5.80;;;1.90;;
22282;SDS011;11310;51.528;21.204;2022-08-25T14:12:09;7.07;;;2.53;;
22282;SDS011;11310;51.528;21.204;2022-08-25T14:15:02;10.40;;;2.42;;
22282;SDS011;11310;51.528;21.204;2022-08-25T14:17:35;8.88;;;2.28;;
22282;SDS011;11310;51.528;21.204;2022-08-25T14:20:18;9.25;;;2.30;;
22282;SDS011;11310;51.528;21.204;2022-08-25T14:22:52;5.65;;;2.50;;
22282;SDS011;11310;51.528;21.204;2022-08-25T14:25:27;9.57;;;2.53;;
22282;SDS011;11310;51.528;21.204;2022-08-25T14:27:58;6.80;;;1.90;;
22282;SDS011;11310;51.528;21.204;2022-08-25T14:30:38;6.35;;;1.80;;
22282;SDS011;11310;51.528;21.204;2022-08-25T14:33:12;8.80;;;1.80;;
22282;SDS011;11310;51.528;21.204;2022-08-25T14:35:48;7.88;;;2.03;;
22282;SDS011;11310;51.528;21.204;2022-08-25T14:38:19;6.53;;;1.80;;
22282;SDS011;11310;51.528;21.204;2022-08-25T14:40:50;6.50;;;1.80;;
22282;SDS011;11310;51.528;21.204;2022-08-25T14:43:20;9.48;;;2.20;;
22282;SDS011;11310;51.528;21.204;2022-08-25T14:45:58;11.68;;;2.30;;
22282;SDS011;11310;51.528;21.204;2022-08-25T14:48:31;12.70;;;1.83;;
22282;SDS011;11310;51.528;21.204;2022-08-25T14:51:08;6.90;;;1.85;;
22282;SDS011;11310;51.528;21.204;2022-08-25T14:53:39;5.30;;;1.58;;
22282;SDS011;11310;51.528;21.204;2022-08-25T14:56:12;4.40;;;1.98;;
22282;SDS011;11310;51.528;21.204;2022-08-25T14:58:41;10.07;;;2.30;;
22282;SDS011;11310;51.528;21.204;2022-08-25T15:01:18;3.33;;;2.13;;
22282;SDS011;11310;51.528;21.204;2022-08-25T15:03:57;9.65;;;1.92;;
22282;SDS011;11310;51.528;21.204;2022-08-25T15:06:30;5.75;;;1.98;;
22282;SDS011;11310;51.528;21.204;2022-08-25T15:09:02;5.25;;;1.58;;
22282;SDS011;11310;51.528;21.204;2022-08-25T15:11:34;4.70;;;1.67;;
22282;SDS011;11310;51.528;21.204;2022-08-25T15:14:08;5.28;;;1.45;;
22282;SDS011;11310;51.528;21.204;2022-08-25T15:16:40;6.72;;;1.98;;
22282;SDS011;11310;51.528;21.204;2022-08-25T15:19:15;12.63;;;1.85;;
22282;SDS011;11310;51.528;21.204;2022-08-25T15:24:16;12.55;;;1.50;;
22282;SDS011;11310;51.528;21.204;2022-08-25T15:26:46;8.10;;;2.65;;
22282;SDS011;11310;51.528;21.204;2022-08-25T15:29:23;8.60;;;1.92;;
22282;SDS011;11310;51.528;21.204;2022-08-25T15:31:55;6.45;;;1.70;;
22282;SDS011;11310;51.528;21.204;2022-08-25T15:34:26;7.35;;;2.33;;
22282;SDS011;11310;51.528;21.204;2022-08-25T15:36:55;5.07;;;1.67;;
22282;SDS011;11310;51.528;21.204;2022-08-25T15:39:29;10.07;;;1.98;;
22282;SDS011;11310;51.528;21.204;2022-08-25T15:41:58;6.78;;;1.90;;